createdAt,value
2022-09-11T00:02:17.713Z,15.03
2022-09-11T00:04:49.886Z,15.09
2022-09-11T00:07:20.101Z,15.11
2022-09-11T00:09:49.729Z,15.16
2022-09-11T00:12:20.294Z,15.21
2022-09-11T00:14:51.586Z,15.26
2022-09-11T00:17:21.586Z,15.32
2022-09-11T00:19:53.861Z,15.36
2022-09-11T00:22:23.486Z,15.44
2022-09-11T00:24:53.085Z,15.48
2022-09-11T00:27:22.685Z,15.55
2022-09-11T00:29:52.392Z,15.60
2022-09-11T00:32:22.014Z,15.64
2022-09-11T00:34:54.176Z,15.70
2022-09-11T00:37:23.985Z,15.71
2022-09-11T00:39:53.747Z,15.74
2022-09-11T00:42:23.408Z,15.77
2022-09-11T00:45:08.138Z,15.80
2022-09-11T00:47:38.763Z,15.80
2022-09-11T00:50:19.368Z,15.81
2022-09-11T00:52:53.319Z,15.83
2022-09-11T00:55:26.826Z,15.85
2022-09-11T00:58:00.961Z,15.88
2022-09-11T01:00:30.829Z,15.90
2022-09-11T01:03:00.675Z,15.90
2022-09-11T01:05:35.117Z,15.92
2022-09-11T01:08:06.406Z,15.95
2022-09-11T01:10:41.232Z,15.97
2022-09-11T01:13:19.331Z,15.98
2022-09-11T01:15:54.334Z,16.00
2022-09-11T01:18:29.655Z,16.02
2022-09-11T01:21:11.614Z,16.03
2022-09-11T01:23:56.470Z,16.04
2022-09-11T01:26:40.661Z,16.03
2022-09-11T01:29:18.037Z,16.03
2022-09-11T01:31:55.146Z,16.02
2022-09-11T01:34:29.664Z,16.00
2022-09-11T01:37:04.055Z,15.99
2022-09-11T01:39:36.958Z,15.99
2022-09-11T01:42:10.301Z,15.99
2022-09-11T01:44:45.611Z,15.99
2022-09-11T01:47:15.469Z,16.00
2022-09-11T01:49:48.092Z,15.98
2022-09-11T01:52:20.967Z,15.98
2022-09-11T01:54:54.512Z,15.98
2022-09-11T01:57:29.409Z,15.98
2022-09-11T02:00:05.033Z,15.97
2022-09-11T02:02:48.138Z,15.96
2022-09-11T02:05:21.097Z,15.98
2022-09-11T02:07:58.203Z,15.98
2022-09-11T02:10:32.145Z,15.97
2022-09-11T02:13:02.689Z,15.98
2022-09-11T02:15:39.768Z,15.96
2022-09-11T02:18:16.244Z,15.95
2022-09-11T02:20:47.700Z,15.96
2022-09-11T02:23:18.533Z,15.97
2022-09-11T02:25:48.152Z,15.97
2022-09-11T02:28:18.155Z,15.99
2022-09-11T02:30:51.461Z,15.96
2022-09-11T02:33:31.766Z,15.93
2022-09-11T02:36:11.104Z,15.93
2022-09-11T02:38:48.820Z,15.91
2022-09-11T02:41:24.084Z,15.89
2022-09-11T02:44:01.201Z,15.88
2022-09-11T02:46:48.327Z,15.86
2022-09-11T02:49:25.112Z,15.85
2022-09-11T02:51:59.325Z,15.85
2022-09-11T02:54:34.433Z,15.85
2022-09-11T02:57:09.718Z,15.86
2022-09-11T02:59:42.781Z,15.85
2022-09-11T03:02:18.333Z,15.85
2022-09-11T03:04:48.885Z,15.85
2022-09-11T03:07:18.485Z,15.87
2022-09-11T03:09:48.032Z,15.88
2022-09-11T03:12:22.889Z,15.86
2022-09-11T03:14:53.585Z,15.85
2022-09-11T03:17:26.926Z,15.84
2022-09-11T03:19:56.464Z,15.84
2022-09-11T03:22:26.860Z,15.82
2022-09-11T03:24:56.790Z,15.82
2022-09-11T03:27:28.870Z,15.83
2022-09-11T03:29:59.145Z,15.81
2022-09-11T03:32:32.368Z,15.82
2022-09-11T03:35:02.469Z,15.80
2022-09-11T03:37:34.388Z,15.80
2022-09-11T03:40:05.130Z,15.80
2022-09-11T03:42:35.081Z,15.79
2022-09-11T03:45:04.645Z,15.78
2022-09-11T03:47:40.253Z,15.79
2022-09-11T03:50:11.389Z,15.79
2022-09-11T03:52:41.327Z,15.78
2022-09-11T03:55:11.540Z,15.78
2022-09-11T03:57:42.154Z,15.77
2022-09-11T04:00:13.603Z,15.76
2022-09-11T04:02:55.543Z,15.76
2022-09-11T04:05:47.182Z,15.77
2022-09-11T04:08:16.944Z,15.77
2022-09-11T04:10:49.102Z,15.76
2022-09-11T04:13:18.804Z,15.74
2022-09-11T04:15:49.658Z,15.72
2022-09-11T04:18:21.815Z,15.72
2022-09-11T04:20:51.557Z,15.70
2022-09-11T04:23:21.732Z,15.69
2022-09-11T04:25:53.348Z,15.68
2022-09-11T04:28:23.712Z,15.67
2022-09-11T04:30:53.443Z,15.63
2022-09-11T04:33:25.573Z,15.61
2022-09-11T04:35:55.136Z,15.61
2022-09-11T04:38:25.178Z,15.60
2022-09-11T04:40:55.329Z,15.57
2022-09-11T04:43:24.890Z,15.55
2022-09-11T04:45:54.545Z,15.54
2022-09-11T04:48:30.824Z,15.53
2022-09-11T04:51:04.408Z,15.53
2022-09-11T04:53:34.408Z,15.52
2022-09-11T04:56:06.345Z,15.50
2022-09-11T04:58:43.280Z,15.49
2022-09-11T05:01:14.306Z,15.50
2022-09-11T05:03:48.770Z,15.49
2022-09-11T05:06:19.401Z,15.50
2022-09-11T05:08:50.868Z,15.49
2022-09-11T05:11:22.288Z,15.50
2022-09-11T05:13:52.003Z,15.50
2022-09-11T05:16:21.614Z,15.50
2022-09-11T05:18:54.833Z,15.50
2022-09-11T05:21:27.998Z,15.48
2022-09-11T05:23:58.744Z,15.49
2022-09-11T05:26:30.501Z,15.50
2022-09-11T05:29:02.245Z,15.51
2022-09-11T05:31:34.229Z,15.53
2022-09-11T05:34:07.978Z,15.54
2022-09-11T05:36:38.077Z,15.55
2022-09-11T05:39:07.639Z,15.57
2022-09-11T05:41:37.369Z,15.57
2022-09-11T05:44:07.470Z,15.58
2022-09-11T05:46:39.528Z,15.57
2022-09-11T05:49:11.803Z,15.58
2022-09-11T05:51:41.821Z,15.58
2022-09-11T05:54:11.369Z,15.60
2022-09-11T05:56:42.010Z,15.61
2022-09-11T05:59:17.501Z,15.60
2022-09-11T06:01:50.830Z,15.59
2022-09-11T06:04:37.057Z,15.57
2022-09-11T06:07:07.143Z,15.55
2022-09-11T06:09:37.334Z,15.56
2022-09-11T06:12:07.471Z,15.57
2022-09-11T06:14:38.060Z,15.61
2022-09-11T06:17:09.017Z,15.63
2022-09-11T06:19:41.191Z,15.67
2022-09-11T06:22:10.706Z,15.73
2022-09-11T06:24:43.653Z,15.80
2022-09-11T06:27:13.343Z,15.84
2022-09-11T06:29:46.839Z,15.89
2022-09-11T06:32:16.417Z,15.92
2022-09-11T06:34:48.539Z,15.94
2022-09-11T06:37:18.518Z,15.94
2022-09-11T06:39:51.921Z,15.93
2022-09-11T06:42:28.094Z,15.92
2022-09-11T06:45:00.698Z,15.92
2022-09-11T06:47:32.158Z,15.89
2022-09-11T06:50:04.842Z,15.86
2022-09-11T06:52:51.910Z,15.85
2022-09-11T06:55:30.471Z,15.85
2022-09-11T06:58:07.069Z,15.84
2022-09-11T07:00:38.957Z,15.86
2022-09-11T07:03:08.972Z,15.91
2022-09-11T07:05:41.820Z,15.98
2022-09-11T07:08:11.591Z,16.03
2022-09-11T07:10:41.470Z,16.07
2022-09-11T07:13:11.091Z,16.13
2022-09-11T07:15:42.390Z,16.18
2022-09-11T07:18:12.397Z,16.22
2022-09-11T07:20:44.992Z,16.27
2022-09-11T07:23:14.530Z,16.29
2022-09-11T07:25:44.206Z,16.31
2022-09-11T07:28:14.324Z,16.33
2022-09-11T07:30:44.522Z,16.36
2022-09-11T07:33:14.051Z,16.41
2022-09-11T07:35:46.238Z,16.48
2022-09-11T07:38:15.828Z,16.56
2022-09-11T07:40:47.160Z,16.64
2022-09-11T07:43:16.691Z,16.74
2022-09-11T07:45:46.930Z,16.84
2022-09-11T07:48:17.628Z,16.89
2022-09-11T07:50:58.121Z,16.96
2022-09-11T07:53:28.547Z,17.02
2022-09-11T07:55:58.794Z,17.02
2022-09-11T07:58:28.630Z,17.01
2022-09-11T08:01:00.662Z,16.99
2022-09-11T08:03:31.122Z,16.94
2022-09-11T08:06:04.995Z,16.86
2022-09-11T08:08:34.859Z,16.80
2022-09-11T08:11:06.908Z,16.77
2022-09-11T08:13:39.070Z,16.74
2022-09-11T08:16:09.622Z,16.73
2022-09-11T08:18:40.755Z,16.76
2022-09-11T08:21:13.850Z,16.82
2022-09-11T08:23:45.223Z,16.88
2022-09-11T08:26:21.703Z,16.94
2022-09-11T08:28:54.777Z,16.94
2022-09-11T08:31:27.872Z,16.91
2022-09-11T08:34:02.691Z,16.84
2022-09-11T08:36:35.164Z,16.76
2022-09-11T08:39:06.688Z,16.69
2022-09-11T08:41:49.085Z,16.69
2022-09-11T08:44:25.198Z,16.73
2022-09-11T08:47:06.580Z,16.83
2022-09-11T08:49:39.764Z,16.99
2022-09-11T08:52:15.018Z,17.21
2022-09-11T08:54:45.660Z,17.36
2022-09-11T08:57:20.532Z,17.43
2022-09-11T09:00:02.185Z,17.45
2022-09-11T09:03:12.620Z,17.47
2022-09-11T09:05:49.458Z,17.49
2022-09-11T09:08:35.315Z,17.43
2022-09-11T09:11:11.086Z,17.40
2022-09-11T09:13:57.732Z,17.37
2022-09-11T09:16:35.099Z,17.33
2022-09-11T09:19:08.577Z,17.35
2022-09-11T09:21:42.167Z,17.38
2022-09-11T09:24:21.869Z,17.45
2022-09-11T09:26:57.160Z,17.52
2022-09-11T09:29:30.547Z,17.60
2022-09-11T09:32:02.745Z,17.76
2022-09-11T09:34:35.076Z,17.99
2022-09-11T09:37:08.633Z,18.30
2022-09-11T09:39:40.878Z,18.56
2022-09-11T09:42:28.286Z,18.82
2022-09-11T09:45:10.513Z,19.04
2022-09-11T09:47:43.815Z,19.11
2022-09-11T09:50:20.715Z,19.10
2022-09-11T09:52:51.729Z,19.03
2022-09-11T09:55:25.514Z,18.91
2022-09-11T09:57:54.846Z,18.77
2022-09-11T10:00:24.615Z,18.66
2022-09-11T10:02:56.121Z,18.58
2022-09-11T10:05:29.479Z,18.56
2022-09-11T10:08:00.510Z,18.58
2022-09-11T10:10:36.299Z,18.65
2022-09-11T10:13:18.906Z,18.83
2022-09-11T10:15:51.276Z,19.05
2022-09-11T10:18:45.320Z,19.27
2022-09-11T10:21:24.428Z,19.60
2022-09-11T10:23:56.214Z,20.05
2022-09-11T10:26:31.742Z,20.56
2022-09-11T10:29:03.925Z,20.90
2022-09-11T10:31:34.022Z,21.19
2022-09-11T10:34:03.803Z,21.46
2022-09-11T10:36:35.089Z,21.76
2022-09-11T10:39:05.036Z,22.05
2022-09-11T10:41:37.479Z,22.23
2022-09-11T10:44:09.371Z,22.28
2022-09-11T10:46:40.035Z,22.31
2022-09-11T10:49:21.863Z,22.35
2022-09-11T10:52:02.574Z,22.34
2022-09-11T10:54:45.876Z,22.31
2022-09-11T10:57:22.451Z,22.18
2022-09-11T11:00:01.053Z,22.05
2022-09-11T11:02:33.264Z,21.90
2022-09-11T11:05:06.799Z,21.79
2022-09-11T11:08:01.635Z,21.66
2022-09-11T11:10:47.478Z,21.56
2022-09-11T11:13:31.252Z,21.50
2022-09-11T11:16:06.288Z,21.46
2022-09-11T11:18:55.329Z,21.52
2022-09-11T11:21:34.190Z,21.63
2022-09-11T11:24:22.600Z,21.65
2022-09-11T11:27:00.039Z,21.64
2022-09-11T11:29:52.763Z,21.59
2022-09-11T11:32:44.864Z,21.53
2022-09-11T11:35:26.599Z,21.48
2022-09-11T11:38:01.691Z,21.43
2022-09-11T11:40:34.564Z,21.45
2022-09-11T11:43:07.924Z,21.56
2022-09-11T11:45:44.777Z,21.68
2022-09-11T11:48:18.688Z,21.77
2022-09-11T11:50:50.182Z,21.90
2022-09-11T11:53:24.167Z,21.97
2022-09-11T11:56:01.449Z,21.96
2022-09-11T11:58:42.022Z,21.88
2022-09-11T12:01:20.185Z,21.80
2022-09-11T12:03:53.878Z,21.82
2022-09-11T12:06:24.351Z,21.87
2022-09-11T12:08:53.965Z,21.90
2022-09-11T12:11:29.984Z,21.93
2022-09-11T12:14:00.584Z,21.91
2022-09-11T12:16:34.819Z,21.88
2022-09-11T12:19:07.756Z,21.88
2022-09-11T12:21:39.932Z,21.88
2022-09-11T12:24:19.888Z,21.88
2022-09-11T12:26:49.894Z,21.84
2022-09-11T12:29:52.196Z,21.84
2022-09-11T12:32:41.407Z,21.86
2022-09-11T12:35:20.180Z,21.88
2022-09-11T12:37:56.329Z,21.89
2022-09-11T12:40:31.117Z,21.89
2022-09-11T12:43:05.384Z,21.89
2022-09-11T12:45:39.457Z,21.92
2022-09-11T12:48:13.852Z,22.03
2022-09-11T12:50:51.850Z,22.15
2022-09-11T12:53:25.616Z,22.21
2022-09-11T12:55:59.759Z,22.24
2022-09-11T12:58:34.138Z,22.16
2022-09-11T13:01:08.450Z,22.02
2022-09-11T13:03:42.116Z,21.93
2022-09-11T13:06:11.804Z,21.93
2022-09-11T13:08:47.680Z,21.94
2022-09-11T13:11:42.625Z,22.05
2022-09-11T13:14:45.767Z,22.12
2022-09-11T13:17:18.463Z,22.17
2022-09-11T13:19:50.970Z,22.27
2022-09-11T13:22:26.310Z,22.36
2022-09-11T13:25:08.700Z,22.44
2022-09-11T13:27:41.578Z,22.46
2022-09-11T13:30:13.940Z,22.46
2022-09-11T13:32:44.361Z,22.46
2022-09-11T13:35:19.667Z,22.50
2022-09-11T13:37:55.318Z,22.46
2022-09-11T13:40:30.253Z,22.36
2022-09-11T13:42:59.921Z,22.24
2022-09-11T13:45:29.723Z,22.14
2022-09-11T13:47:59.382Z,22.09
2022-09-11T13:50:31.592Z,21.98
2022-09-11T13:53:01.196Z,21.90
2022-09-11T13:55:30.782Z,21.82
2022-09-11T13:58:02.252Z,21.73
2022-09-11T14:00:44.521Z,21.63
2022-09-11T14:03:23.152Z,21.46
2022-09-11T14:05:57.556Z,21.32
2022-09-11T14:08:34.417Z,21.24
2022-09-11T14:11:10.948Z,21.15
2022-09-11T14:13:44.632Z,21.04
2022-09-11T14:16:24.085Z,20.90
2022-09-11T14:18:56.024Z,20.82
2022-09-11T14:21:33.798Z,20.77
2022-09-11T14:24:07.253Z,20.76
2022-09-11T14:26:43.490Z,20.79
2022-09-11T14:29:28.098Z,20.81
2022-09-11T14:31:58.533Z,20.83
2022-09-11T14:34:29.839Z,20.89
2022-09-11T14:37:07.865Z,20.91
2022-09-11T14:39:40.512Z,20.96
2022-09-11T14:42:11.374Z,21.03
2022-09-11T14:44:42.134Z,21.11
2022-09-11T14:47:17.228Z,21.21
2022-09-11T14:49:47.088Z,21.29
2022-09-11T14:52:22.299Z,21.41
2022-09-11T14:54:51.939Z,21.53
2022-09-11T14:57:23.453Z,21.62
2022-09-11T14:59:53.975Z,21.72
2022-09-11T15:02:24.992Z,21.80
2022-09-11T15:04:56.389Z,21.85
2022-09-11T15:07:29.037Z,21.81
2022-09-11T15:09:58.689Z,21.73
2022-09-11T15:12:29.364Z,21.65
2022-09-11T15:14:59.854Z,21.54
2022-09-11T15:17:30.548Z,21.40
2022-09-11T15:20:00.733Z,21.30
2022-09-11T15:22:34.822Z,21.24
2022-09-11T15:25:04.388Z,21.19
2022-09-11T15:27:34.005Z,21.12
2022-09-11T15:30:03.554Z,21.04
2022-09-11T15:32:33.607Z,20.95
2022-09-11T15:35:05.014Z,20.84
2022-09-11T15:37:37.185Z,20.70
2022-09-11T15:40:07.754Z,20.58
2022-09-11T15:42:39.844Z,20.49
2022-09-11T15:45:13.008Z,20.41
2022-09-11T15:47:42.724Z,20.34
2022-09-11T15:50:13.019Z,20.30
2022-09-11T15:52:45.137Z,20.26
2022-09-11T15:55:14.816Z,20.22
2022-09-11T15:57:44.352Z,20.19
2022-09-11T16:00:16.028Z,20.16
2022-09-11T16:02:45.596Z,20.10
2022-09-11T16:05:15.532Z,20.07
2022-09-11T16:07:48.220Z,20.04
2022-09-11T16:10:19.729Z,20.01
2022-09-11T16:12:49.664Z,19.97
2022-09-11T16:15:19.300Z,19.91
2022-09-11T16:17:48.825Z,19.88
2022-09-11T16:20:18.545Z,19.84
2022-09-11T16:22:50.781Z,19.79
2022-09-11T16:25:20.378Z,19.74
2022-09-11T16:27:50.410Z,19.70
2022-09-11T16:30:42.033Z,19.66
2022-09-11T16:33:10.315Z,19.60
2022-09-11T16:35:40.434Z,19.55
2022-09-11T16:38:12.566Z,19.51
2022-09-11T16:40:42.174Z,19.45
2022-09-11T16:43:11.976Z,19.39
2022-09-11T16:45:41.561Z,19.32
2022-09-11T16:48:11.096Z,19.26
2022-09-11T16:50:40.649Z,19.20
2022-09-11T16:53:13.955Z,19.15
2022-09-11T16:55:43.560Z,19.10
2022-09-11T16:58:13.546Z,19.04
2022-09-11T17:00:43.772Z,18.99
2022-09-11T17:03:14.227Z,18.92
2022-09-11T17:05:49.241Z,18.86
2022-09-11T17:08:21.477Z,18.80
2022-09-11T17:10:53.432Z,18.73
2022-09-11T17:13:24.123Z,18.66
2022-09-11T17:15:53.744Z,18.58
2022-09-11T17:18:23.361Z,18.52
2022-09-11T17:20:58.870Z,18.43
2022-09-11T17:23:31.471Z,18.35
2022-09-11T17:26:01.012Z,18.26
2022-09-11T17:28:31.718Z,18.19
2022-09-11T17:31:03.819Z,18.11
2022-09-11T17:33:33.905Z,18.00
2022-09-11T17:36:03.603Z,17.90
2022-09-11T17:38:35.862Z,17.79
2022-09-11T17:41:08.107Z,17.69
2022-09-11T17:43:38.712Z,17.59
2022-09-11T17:46:10.738Z,17.48
2022-09-11T17:48:40.620Z,17.38
2022-09-11T17:51:12.427Z,17.27
2022-09-11T17:53:46.463Z,17.14
2022-09-11T17:56:18.507Z,17.02
2022-09-11T17:58:52.128Z,16.91
2022-09-11T18:01:22.033Z,16.79
2022-09-11T18:03:55.609Z,16.69
2022-09-11T18:06:28.363Z,16.58
2022-09-11T18:09:01.866Z,16.49
2022-09-11T18:11:31.973Z,16.38
2022-09-11T18:14:01.893Z,16.29
2022-09-11T18:16:31.488Z,16.18
2022-09-11T18:19:01.916Z,16.08
2022-09-11T18:21:31.577Z,15.98
2022-09-11T18:24:04.436Z,15.90
2022-09-11T18:26:36.700Z,15.79
2022-09-11T18:29:09.892Z,15.71
2022-09-11T18:31:42.610Z,15.63
2022-09-11T18:34:14.019Z,15.57
2022-09-11T18:36:43.644Z,15.52
2022-09-11T18:39:17.809Z,15.48
2022-09-11T18:41:48.520Z,15.39
2022-09-11T18:44:20.525Z,15.30
2022-09-11T18:46:50.495Z,15.26
2022-09-11T18:49:20.241Z,15.24
2022-09-11T18:51:49.914Z,15.20
2022-09-11T18:54:23.706Z,15.16
2022-09-11T18:56:53.587Z,15.12
2022-09-11T18:59:23.130Z,15.10
2022-09-11T19:01:52.776Z,15.10
2022-09-11T19:04:23.366Z,15.12
2022-09-11T19:06:52.900Z,15.09
2022-09-11T19:09:26.498Z,15.05
2022-09-11T19:11:56.421Z,15.00
2022-09-11T19:14:26.709Z,14.95
2022-09-11T19:16:56.410Z,14.89
2022-09-11T19:19:25.987Z,14.87
2022-09-11T19:21:55.625Z,14.86
2022-09-11T19:24:30.065Z,14.86
2022-09-11T19:27:00.223Z,14.84
2022-09-11T19:29:29.918Z,14.84
2022-09-11T19:32:01.067Z,14.82
2022-09-11T19:34:32.557Z,14.74
2022-09-11T19:37:03.620Z,14.64
2022-09-11T19:39:35.753Z,14.56
2022-09-11T19:42:05.830Z,14.47
2022-09-11T19:44:35.433Z,14.42
2022-09-11T19:47:05.729Z,14.39
2022-09-11T19:49:35.308Z,14.36
2022-09-11T19:52:05.900Z,14.32
2022-09-11T19:54:38.092Z,14.26
2022-09-11T19:57:08.386Z,14.25
2022-09-11T19:59:38.134Z,14.24
2022-09-11T20:02:07.756Z,14.21
2022-09-11T20:04:37.444Z,14.16
2022-09-11T20:07:07.009Z,14.13
2022-09-11T20:09:40.371Z,14.12
2022-09-11T20:12:10.157Z,14.09
2022-09-11T20:14:42.588Z,14.03
2022-09-11T20:17:13.130Z,13.99
2022-09-11T20:19:44.847Z,13.97
2022-09-11T20:22:14.537Z,13.97
2022-09-11T20:24:46.705Z,14.00
2022-09-11T20:27:16.239Z,13.98
2022-09-11T20:29:46.296Z,13.96
2022-09-11T20:32:17.229Z,13.96
2022-09-11T20:34:47.014Z,13.93
2022-09-11T20:37:16.846Z,13.93
2022-09-11T20:39:49.003Z,13.94
2022-09-11T20:42:18.557Z,13.95
2022-09-11T20:44:49.057Z,13.96
2022-09-11T20:47:18.970Z,13.92
2022-09-11T20:49:48.593Z,13.86
2022-09-11T20:52:19.053Z,13.82
2022-09-11T20:54:51.249Z,13.76
2022-09-11T20:57:20.851Z,13.71
2022-09-11T20:59:50.462Z,13.73
2022-09-11T21:02:20.129Z,13.71
2022-09-11T21:04:50.034Z,13.68
2022-09-11T21:07:19.590Z,13.64
2022-09-11T21:09:51.714Z,13.61
2022-09-11T21:12:21.293Z,13.58
2022-09-11T21:14:50.840Z,13.56
2022-09-11T21:17:20.430Z,13.51
2022-09-11T21:19:53.165Z,13.47
2022-09-11T21:22:25.107Z,13.44
2022-09-11T21:24:57.235Z,13.44
2022-09-11T21:27:26.810Z,13.45
2022-09-11T21:29:56.353Z,13.42
2022-09-11T21:32:25.902Z,13.38
2022-09-11T21:34:55.457Z,13.35
2022-09-11T21:37:25.057Z,13.34
2022-09-11T21:39:57.320Z,13.32
2022-09-11T21:42:27.000Z,13.32
2022-09-11T21:44:56.560Z,13.32
2022-09-11T21:47:26.131Z,13.30
2022-09-11T21:49:55.704Z,13.29
2022-09-11T21:52:25.275Z,13.27
2022-09-11T21:54:58.689Z,13.27
2022-09-11T21:57:28.940Z,13.25
2022-09-11T21:59:58.863Z,13.22
2022-09-11T22:02:29.412Z,13.19
2022-09-11T22:04:59.809Z,13.17
2022-09-11T22:07:29.669Z,13.17
2022-09-11T22:10:02.271Z,13.17
2022-09-11T22:12:31.881Z,13.16
2022-09-11T22:15:01.531Z,13.16
2022-09-11T22:17:31.437Z,13.16
2022-09-11T22:20:01.028Z,13.19
2022-09-11T22:22:30.768Z,13.19
2022-09-11T22:25:02.916Z,13.23
2022-09-11T22:27:32.486Z,13.25
2022-09-11T22:30:02.237Z,13.25
2022-09-11T22:32:33.118Z,13.21
2022-09-11T22:35:02.653Z,13.17
2022-09-11T22:37:32.365Z,13.16
2022-09-11T22:40:05.388Z,13.13
2022-09-11T22:42:34.991Z,13.11
2022-09-11T22:45:04.516Z,13.10
2022-09-11T22:47:34.078Z,13.11
2022-09-11T22:50:03.617Z,13.13
2022-09-11T22:52:33.178Z,13.15
2022-09-11T22:55:05.802Z,13.15
2022-09-11T22:57:38.001Z,13.15
2022-09-11T23:00:10.940Z,13.15
2022-09-11T23:02:40.827Z,13.16
2022-09-11T23:05:23.968Z,13.15
2022-09-11T23:07:54.524Z,13.11
2022-09-11T23:10:26.677Z,13.09
2022-09-11T23:12:56.332Z,13.07
2022-09-11T23:15:25.848Z,13.06
2022-09-11T23:17:55.392Z,13.06
2022-09-11T23:20:24.927Z,13.06
2022-09-11T23:22:54.955Z,13.05
2022-09-11T23:25:27.825Z,13.09
2022-09-11T23:27:57.441Z,13.11
2022-09-11T23:30:26.972Z,13.10
2022-09-11T23:32:56.640Z,13.08
2022-09-11T23:35:26.180Z,13.06
2022-09-11T23:37:55.767Z,13.04
2022-09-11T23:40:32.759Z,13.05
2022-09-11T23:43:03.045Z,13.04
2022-09-11T23:45:32.625Z,13.04
2022-09-11T23:48:02.219Z,13.04
2022-09-11T23:50:31.859Z,13.03
2022-09-11T23:53:01.426Z,13.00
2022-09-11T23:55:33.675Z,13.00
2022-09-11T23:58:03.343Z,13.00
